Time;durP1;ratioP1;P1;durP2;ratioP2;P2;SDS_P1;SDS_P2;PMS_P1;PMS_P2;Temp;Humidity;BMP_temperature;BMP_pressure;BME280_temperature;BME280_humidity;BME280_pressure;Samples;Min_cycle;Max_cycle;Signal;HPM_P1;HPM_P2
2022/09/06 00:02:22;;;;;;;2.00;1.50;;;;;;;22.17;62.16;101645.44;5968459;23;20450;-65
2022/09/06 00:04:48;;;;;;;1.70;1.40;;;;;;;22.25;62.46;101654.13;5963032;23;20075;-65
2022/09/06 00:07:13;;;;;;;1.90;1.50;;;;;;;22.26;62.57;101657.66;5962852;23;20303;-65
2022/09/06 00:09:39;;;;;;;2.05;1.58;;;;;;;22.12;62.82;101662.41;5968733;23;20012;-65
2022/09/06 00:12:04;;;;;;;2.35;1.50;;;;;;;22.20;62.29;101671.09;5958229;23;20090;-64
2022/09/06 00:14:30;;;;;;;2.45;1.45;;;;;;;22.15;62.77;101695.06;5991885;23;20008;-65
2022/09/06 00:16:55;;;;;;;1.90;1.50;;;;;;;22.18;62.22;101691.47;5967791;23;20012;-65
2022/09/06 00:19:20;;;;;;;2.90;1.60;;;;;;;22.07;63.41;101706.78;5962330;23;20012;-64
2022/09/06 00:21:47;;;;;;;2.28;1.77;;;;;;;21.92;63.62;101702.59;5964045;23;20023;-65
2022/09/06 00:24:12;;;;;;;2.40;1.80;;;;;;;21.92;64.26;101707.91;5959430;23;20111;-66
2022/09/06 00:26:47;;;;;;;2.33;1.50;;;;;;;21.82;64.37;101712.53;5963021;23;20094;-65
2022/09/06 00:29:13;;;;;;;2.85;1.70;;;;;;;21.78;64.63;101705.53;5962038;23;20111;-65
2022/09/06 00:31:38;;;;;;;4.25;1.88;;;;;;;21.72;65.13;101705.66;5967343;23;20111;-65
2022/09/06 00:34:04;;;;;;;3.05;2.03;;;;;;;21.59;65.40;101698.81;5956017;23;20488;-65
2022/09/06 00:36:29;;;;;;;6.50;1.90;;;;;;;21.55;65.81;101697.13;5969333;23;20487;-65
2022/09/06 00:38:55;;;;;;;2.33;1.50;;;;;;;21.88;64.77;101692.09;5965132;23;20088;-65
2022/09/06 00:41:21;;;;;;;3.58;1.80;;;;;;;22.02;64.44;101698.00;5966465;23;20026;-65
2022/09/06 00:43:53;;;;;;;1.67;1.50;;;;;;;21.81;64.66;101678.94;5967128;23;20090;-65
2022/09/06 00:46:22;;;;;;;2.60;1.80;;;;;;;21.50;64.61;101683.09;5961883;23;20055;-64
2022/09/06 00:48:52;;;;;;;4.07;1.60;;;;;;;21.49;63.86;101676.03;5964007;23;20024;-65
2022/09/06 00:51:19;;;;;;;3.63;1.80;;;;;;;21.61;63.21;101675.78;5973494;23;20012;-65
2022/09/06 00:53:45;;;;;;;2.78;1.80;;;;;;;21.59;63.90;101682.91;5957772;23;20152;-65
2022/09/06 00:56:11;;;;;;;3.15;1.77;;;;;;;21.74;63.09;101657.84;5963552;23;20072;-65
2022/09/06 00:58:46;;;;;;;2.20;1.80;;;;;;;21.55;62.24;101662.63;5959030;23;20019;-65
2022/09/06 01:01:11;;;;;;;2.63;1.80;;;;;;;22.02;62.50;101647.53;5987084;23;20007;-65
2022/09/06 01:03:39;;;;;;;2.75;2.00;;;;;;;21.59;62.34;101640.44;5965366;23;20018;-65
2022/09/06 01:06:33;;;;;;;2.80;2.00;;;;;;;21.68;63.00;101629.66;5953739;23;20019;-66
2022/09/06 01:09:12;;;;;;;4.05;2.00;;;;;;;21.68;64.27;101616.38;5968596;23;20007;-66
2022/09/06 01:12:03;;;;;;;4.03;2.00;;;;;;;21.62;63.36;101605.03;5960264;23;20016;-66
2022/09/06 01:15:04;;;;;;;3.50;1.98;;;;;;;21.81;63.15;101603.72;5972261;23;20023;-66
2022/09/06 01:17:42;;;;;;;5.07;1.90;;;;;;;21.45;63.18;101602.72;5960916;23;20015;-66
2022/09/06 01:20:30;;;;;;;3.45;2.00;;;;;;;21.22;64.37;101584.59;5956733;23;20472;-66
2022/09/06 01:23:11;;;;;;;3.38;1.88;;;;;;;21.30;64.55;101569.41;5954941;23;20015;-66
2022/09/06 01:25:58;;;;;;;2.28;1.80;;;;;;;21.53;63.54;101568.09;5965172;23;20040;-66
2022/09/06 01:28:33;;;;;;;2.95;1.67;;;;;;;21.58;62.39;101569.72;5956800;23;20019;-66
2022/09/06 01:31:05;;;;;;;3.70;1.80;;;;;;;21.70;62.50;101552.66;5965442;23;20008;-66
2022/09/06 01:33:51;;;;;;;3.92;1.80;;;;;;;21.44;60.89;101555.88;5966040;23;20040;-65
2022/09/06 01:36:23;;;;;;;4.25;1.90;;;;;;;21.62;61.91;101546.66;5967728;23;20016;-66
2022/09/06 01:38:49;;;;;;;6.22;2.00;;;;;;;21.50;60.27;101542.47;5960206;23;20122;-66
2022/09/06 01:41:15;;;;;;;3.05;2.08;;;;;;;21.60;61.55;101543.13;5963615;23;20452;-66
2022/09/06 01:43:48;;;;;;;3.25;2.20;;;;;;;21.68;59.90;101539.44;5968329;23;20016;-66
2022/09/06 01:46:16;;;;;;;4.68;2.33;;;;;;;21.61;59.88;101539.59;5961284;23;20011;-66
2022/09/06 01:48:53;;;;;;;5.03;2.70;;;;;;;21.64;60.09;101537.75;5963440;23;20023;-66
2022/09/06 01:51:36;;;;;;;2.95;2.53;;;;;;;21.81;61.22;101540.03;5965810;23;20015;-65
2022/09/06 01:54:32;;;;;;;4.03;2.80;;;;;;;21.69;61.09;101533.22;5955818;23;20012;-66
2022/09/06 01:57:11;;;;;;;4.25;2.58;;;;;;;21.73;62.03;101541.97;5968139;23;20008;-66
2022/09/06 02:00:18;;;;;;;5.65;2.78;;;;;;;21.55;62.80;101537.94;5958104;23;20011;-65
2022/09/06 02:03:24;;;;;;;2.85;2.38;;;;;;;21.63;62.69;101538.66;5969104;23;20028;-66
2022/09/06 02:05:54;;;;;;;3.60;2.45;;;;;;;21.52;63.26;101540.66;5949396;23;20020;-66
2022/09/06 02:08:43;;;;;;;3.70;2.40;;;;;;;21.49;63.84;101543.38;5963797;23;20094;-67
2022/09/06 02:11:09;;;;;;;4.70;2.83;;;;;;;21.41;64.54;101550.59;5957211;23;20011;-65
2022/09/06 02:13:38;;;;;;;4.95;2.55;;;;;;;21.39;64.28;101548.00;5957678;23;20639;-65
2022/09/06 02:16:06;;;;;;;5.45;2.70;;;;;;;21.34;64.92;101554.31;5955211;23;20095;-65
2022/09/06 02:18:46;;;;;;;4.63;2.97;;;;;;;21.24;65.95;101566.00;5972491;23;20007;-65
2022/09/06 02:21:15;;;;;;;4.15;2.80;;;;;;;21.18;66.44;101563.47;5990875;23;20008;-65
2022/09/06 02:23:43;;;;;;;3.75;3.00;;;;;;;21.04;67.09;101566.38;5953843;23;20345;-65
2022/09/06 02:26:18;;;;;;;4.85;2.90;;;;;;;20.89;68.27;101575.47;5942944;23;20004;-65
2022/09/06 02:28:44;;;;;;;4.82;3.10;;;;;;;20.80;68.23;101574.75;5965698;23;21071;-65
2022/09/06 02:31:24;;;;;;;4.60;3.25;;;;;;;20.38;70.13;101571.03;5955778;23;20011;-65
2022/09/06 02:33:50;;;;;;;4.80;3.20;;;;;;;20.29;70.80;101576.44;5959441;23;20022;-65
2022/09/06 02:36:17;;;;;;;5.32;3.13;;;;;;;20.27;71.27;101572.03;5959402;23;20269;-65
2022/09/06 02:38:44;;;;;;;5.72;3.20;;;;;;;20.41;70.57;101577.16;5966755;23;20010;-65
2022/09/06 02:41:11;;;;;;;5.15;3.10;;;;;;;20.61;70.71;101576.84;5964973;23;20019;-65
2022/09/06 02:43:42;;;;;;;4.90;3.50;;;;;;;20.73;70.78;101575.75;5967438;23;20018;-65
2022/09/06 02:46:07;;;;;;;3.92;3.10;;;;;;;20.80;70.68;101586.19;5955697;23;20624;-65
2022/09/06 02:48:33;;;;;;;4.75;3.00;;;;;;;20.91;70.59;101584.28;5957243;23;20016;-67
2022/09/06 02:51:03;;;;;;;4.03;2.85;;;;;;;20.94;70.42;101583.31;5967145;23;20027;-66
2022/09/06 02:53:30;;;;;;;4.57;3.30;;;;;;;20.96;70.03;101584.19;5954860;23;20070;-65
2022/09/06 02:55:56;;;;;;;5.15;3.20;;;;;;;20.93;69.40;101577.13;5951135;23;20007;-65
2022/09/06 02:58:23;;;;;;;4.40;3.60;;;;;;;20.98;69.29;101577.09;5968225;23;20012;-65
2022/09/06 03:00:51;;;;;;;4.78;3.60;;;;;;;21.10;69.26;101583.94;5961833;23;20023;-63
2022/09/06 03:03:16;;;;;;;5.78;3.90;;;;;;;21.05;68.34;101582.22;5967264;23;20477;-65
2022/09/06 03:05:51;;;;;;;4.05;3.22;;;;;;;21.28;67.81;101586.25;5966214;23;20091;-66
2022/09/06 03:08:17;;;;;;;4.72;3.28;;;;;;;21.29;68.08;101594.16;5956967;23;20600;-65
2022/09/06 03:10:54;;;;;;;5.45;3.50;;;;;;;21.35;68.22;101602.00;5969441;23;20079;-65
2022/09/06 03:13:20;;;;;;;4.47;3.70;;;;;;;21.04;69.26;101603.47;5962639;23;20598;-66
2022/09/06 03:15:51;;;;;;;9.25;4.43;;;;;;;20.48;72.17;101588.53;5962156;23;20200;-65
2022/09/06 03:18:16;;;;;;;6.97;3.97;;;;;;;20.50;72.25;101587.59;5956997;23;20364;-66
2022/09/06 03:20:42;;;;;;;5.63;3.60;;;;;;;20.92;70.51;101596.59;5967554;23;20428;-65
2022/09/06 03:23:08;;;;;;;4.82;3.70;;;;;;;21.06;69.98;101607.84;5964614;23;20562;-65
2022/09/06 03:25:33;;;;;;;4.18;3.50;;;;;;;21.16;69.50;101610.38;5955871;23;20020;-65
2022/09/06 03:27:59;;;;;;;5.57;4.18;;;;;;;21.06;70.41;101620.22;5954545;23;20012;-65
2022/09/06 03:30:24;;;;;;;6.05;3.90;;;;;;;21.12;69.91;101625.41;5958514;23;20448;-66
2022/09/06 03:32:49;;;;;;;7.20;3.75;;;;;;;21.13;69.96;101628.94;5979779;23;20019;-67
2022/09/06 03:35:15;;;;;;;6.25;4.22;;;;;;;21.03;70.18;101625.59;5962598;23;20015;-66
2022/09/06 03:37:40;;;;;;;5.88;3.80;;;;;;;21.06;70.49;101636.13;5957112;23;20022;-65
2022/09/06 13:11:44;;;;;;;11.02;2.55;;;;;;;29.02;42.37;101557.69;5984905;23;3309516;-66
2022/09/06 13:14:15;;;;;;;5.72;2.50;;;;;;;28.84;43.66;101555.97;6069059;23;20022;-66
2022/09/06 13:16:46;;;;;;;4.32;2.40;;;;;;;28.60;43.71;101550.88;6103503;23;20014;-66
2022/09/06 13:19:35;;;;;;;7.05;2.78;;;;;;;28.89;45.20;101543.16;6069613;23;20494;-67
2022/09/06 13:22:02;;;;;;;5.82;2.50;;;;;;;28.96;44.84;101537.41;6067262;23;20010;-67
2022/09/06 13:24:34;;;;;;;5.10;2.30;;;;;;;29.09;41.88;101545.66;6073467;23;20084;-66
2022/09/06 13:27:00;;;;;;;9.25;2.75;;;;;;;29.05;43.39;101549.44;6075709;23;20411;-66
2022/09/06 13:29:32;;;;;;;8.07;3.00;;;;;;;28.93;44.67;101547.41;6074039;23;20033;-66
2022/09/06 13:32:00;;;;;;;6.35;2.40;;;;;;;29.02;44.37;101553.19;6061139;23;20117;-67
2022/09/06 13:34:55;;;;;;;6.20;2.30;;;;;;;29.09;42.15;101558.22;6058599;23;20044;-66
2022/09/06 13:37:30;;;;;;;6.43;2.08;;;;;;;29.27;40.52;101557.25;6053515;23;20477;-68
2022/09/06 13:40:03;;;;;;;4.47;2.10;;;;;;;29.03;42.28;101546.00;6065095;23;20061;-68
2022/09/06 13:42:31;;;;;;;;;;;;;;;28.50;42.66;101551.41;6077041;23;20041;-67
2022/09/06 13:44:58;;;;;;;6.13;2.65;;;;;;;28.67;43.70;101545.19;6075432;23;19909;-67
2022/09/06 13:53:01;;;;;;;8.30;2.28;;;;;;;28.77;46.78;101563.44;4875251;27;2457161;-44
2022/09/06 13:55:30;;;;;;;12.50;2.60;;;;;;;29.14;45.12;101565.09;4964962;28;20073;-48
2022/09/06 13:57:55;;;;;;;11.07;2.47;;;;;;;29.13;45.19;101560.66;4958258;28;20415;-53
2022/09/06 14:00:21;;;;;;;8.48;2.85;;;;;;;29.09;45.39;101552.84;4965974;28;20041;-51
2022/09/06 14:02:48;;;;;;;11.57;2.60;;;;;;;29.07;45.20;101560.97;4956631;28;20041;-54
2022/09/06 14:05:13;;;;;;;14.20;2.80;;;;;;;28.97;47.29;101554.38;4947583;28;20057;-57
2022/09/06 14:07:38;;;;;;;7.32;2.53;;;;;;;29.11;44.65;101553.63;4958565;28;20041;-53
2022/09/06 14:10:04;;;;;;;6.07;2.72;;;;;;;29.16;44.55;101548.88;4934643;28;20361;-51
2022/09/06 14:12:30;;;;;;;9.18;2.28;;;;;;;29.18;44.95;101544.28;4930680;28;20055;-53
2022/09/06 14:14:55;;;;;;;9.65;2.70;;;;;;;29.12;45.24;101537.44;4937295;28;20521;-50
2022/09/06 14:17:20;;;;;;;10.75;2.50;;;;;;;29.07;45.16;101528.75;4938607;28;20078;-54
2022/09/06 14:19:47;;;;;;;8.77;2.55;;;;;;;29.01;45.42;101523.72;4931934;28;20058;-51
2022/09/06 14:22:12;;;;;;;10.25;2.47;;;;;;;29.02;44.91;101523.66;4940274;28;20046;-49
2022/09/06 14:24:38;;;;;;;6.85;2.78;;;;;;;29.01;44.83;101531.78;4942765;28;20031;-50
2022/09/06 14:27:05;;;;;;;9.02;2.50;;;;;;;29.02;44.92;101530.84;4944011;28;20080;-51
2022/09/06 14:29:31;;;;;;;10.20;2.60;;;;;;;28.99;44.92;101529.16;4930604;28;20034;-51
2022/09/06 14:31:57;;;;;;;7.80;2.63;;;;;;;28.96;45.03;101532.03;4928252;28;20034;-49
2022/09/06 14:34:24;;;;;;;6.72;2.50;;;;;;;28.99;45.12;101530.97;4929925;28;20042;-54
2022/09/06 14:36:50;;;;;;;7.72;2.47;;;;;;;28.93;45.58;101534.84;4954695;28;20026;-52
2022/09/06 14:39:17;;;;;;;9.00;2.85;;;;;;;28.89;45.54;101544.03;4941886;28;20133;-54
2022/09/06 14:41:42;;;;;;;8.18;2.47;;;;;;;28.88;45.51;101533.38;4938103;28;20039;-51
2022/09/06 14:44:08;;;;;;;7.65;2.67;;;;;;;28.90;45.51;101532.34;4939530;28;20041;-54
2022/09/06 14:46:33;;;;;;;5.93;2.60;;;;;;;28.89;45.19;101529.75;4934845;28;20073;-54
2022/09/06 14:49:01;;;;;;;7.47;2.38;;;;;;;28.87;45.39;101531.63;4939917;28;20611;-51
2022/09/06 14:51:28;;;;;;;7.43;2.42;;;;;;;28.84;45.54;101531.81;4961090;28;20138;-51
2022/09/06 14:53:57;;;;;;;8.82;2.40;;;;;;;28.87;45.12;101527.13;4956208;28;20049;-50
2022/09/06 14:56:23;;;;;;;6.07;2.60;;;;;;;28.85;45.37;101534.38;4958216;28;20037;-53
2022/09/06 14:58:49;;;;;;;5.63;2.63;;;;;;;28.87;45.03;101531.63;4962833;28;20037;-50
2022/09/06 15:01:20;;;;;;;4.68;2.20;;;;;;;28.88;45.15;101528.88;4964377;28;20313;-51
2022/09/06 15:03:50;;;;;;;5.20;2.30;;;;;;;28.90;45.01;101534.16;4956722;28;20512;-52
2022/09/06 15:06:16;;;;;;;5.22;2.40;;;;;;;28.96;44.80;101523.09;4947690;28;20485;-54
2022/09/06 15:08:42;;;;;;;8.23;2.30;;;;;;;28.96;44.89;101520.41;4954541;28;20014;-52
2022/09/06 15:11:09;;;;;;;6.72;2.33;;;;;;;28.99;44.81;101522.94;4939238;28;20414;-53
2022/09/06 15:13:39;;;;;;;5.07;2.25;;;;;;;28.96;44.75;101510.56;4952418;28;20055;-51
2022/09/06 15:16:05;;;;;;;4.25;2.17;;;;;;;28.98;44.88;101502.41;4949677;28;20337;-49
2022/09/06 15:18:30;;;;;;;5.45;2.30;;;;;;;28.98;44.44;101492.53;4928852;28;20580;-51
2022/09/06 15:20:56;;;;;;;5.88;2.08;;;;;;;29.02;44.87;101494.13;4946446;28;20045;-54
2022/09/06 15:23:21;;;;;;;4.20;2.20;;;;;;;28.93;44.92;101494.59;4949109;28;20054;-50
2022/09/06 15:25:49;;;;;;;5.57;2.30;;;;;;;28.94;44.72;101492.78;4947937;28;20564;-48
2022/09/06 15:28:16;;;;;;;4.80;2.20;;;;;;;28.91;45.24;101492.97;4948086;28;20786;-49
2022/09/06 15:30:42;;;;;;;6.97;2.38;;;;;;;28.95;44.58;101490.03;4953362;28;20030;-53
2022/09/06 15:33:08;;;;;;;9.35;2.17;;;;;;;28.95;44.77;101487.34;4947170;28;20046;-50
2022/09/06 15:35:34;;;;;;;10.13;2.35;;;;;;;28.64;46.11;101485.38;4944073;28;20542;-51
2022/09/06 15:37:59;;;;;;;8.05;2.10;;;;;;;28.59;46.12;101478.50;4959700;28;20042;-52
2022/09/06 16:30:51;;;;;;;4.18;1.50;;;;;;;28.15;46.04;101470.91;4992456;27;20445;-35
2022/09/06 16:40:59;;;;;;;5.13;2.47;;;;;;;25.35;51.75;101449.44;4909061;27;2003531;-70
2022/09/06 16:43:26;;;;;;;8.55;3.30;;;;;;;25.56;nan;101437.03;4930352;28;20053;-39
2022/09/06 16:45:59;;;;;;;5.55;2.40;;;;;;;26.07;nan;101434.09;4897614;28;20046;-68
2022/09/06 16:48:25;;;;;;;6.10;2.20;;;;;;;25.79;nan;101429.91;4958707;28;20232;-68
2022/09/06 16:50:51;;;;;;;5.47;2.10;;;;;;;26.44;nan;101436.97;4936631;28;20077;-61
2022/09/06 16:53:16;;;;;;;5.13;2.20;;;;;;;26.94;nan;101440.09;4924927;28;20039;-63
2022/09/06 16:55:42;;;;;;;5.47;2.55;;;;;;;26.88;nan;101436.81;4951910;28;20378;-59
2022/09/06 17:41:34;;;;;;;4.63;1.85;;;;;;;26.91;45.42;101401.91;4408733;27;19026436;-73
2022/09/06 17:44:11;;;;;;;4.80;1.92;;;;;;;26.93;46.14;101400.03;5065666;27;20078;-71
2022/09/06 17:46:38;;;;;;;3.63;1.95;;;;;;;26.97;43.78;101404.28;5055743;28;20477;-71
2022/09/06 17:49:06;;;;;;;4.40;2.03;;;;;;;26.94;43.46;101407.13;5048228;28;20123;-74
2022/09/06 17:51:40;;;;;;;7.55;2.17;;;;;;;26.92;44.60;101409.00;5045141;28;20050;-78
2022/09/06 17:54:10;;;;;;;4.47;2.10;;;;;;;26.79;47.84;101408.66;5016274;28;20527;-68
2022/09/06 17:56:37;;;;;;;6.25;2.20;;;;;;;26.74;48.46;101405.31;5049065;28;20030;-77
2022/09/06 17:59:08;;;;;;;3.97;2.08;;;;;;;26.56;46.24;101400.78;5034976;28;20057;-74
2022/09/06 18:01:39;;;;;;;8.70;2.15;;;;;;;26.66;44.72;101405.66;5041147;28;20457;-75
2022/09/06 18:04:05;;;;;;;5.70;2.20;;;;;;;26.65;47.16;101405.75;5056713;28;20291;-75
2022/09/06 18:06:32;;;;;;;5.63;2.20;;;;;;;26.48;48.37;101400.25;5056038;28;20513;-76
2022/09/06 18:09:03;;;;;;;4.35;2.17;;;;;;;26.59;46.10;101392.66;5067617;28;20032;-75
2022/09/06 18:11:31;;;;;;;6.95;2.30;;;;;;;26.11;50.12;101396.47;5052427;28;20174;-77
2022/09/06 18:13:58;;;;;;;9.00;2.10;;;;;;;26.14;47.64;101403.50;5064229;28;20031;-76
2022/09/06 18:16:25;;;;;;;7.78;2.10;;;;;;;26.20;48.11;101396.09;5056494;28;20413;-76
2022/09/06 18:18:59;;;;;;;6.93;2.97;;;;;;;26.29;45.96;101389.50;5025185;28;20039;-76
2022/09/06 18:21:27;;;;;;;7.05;2.80;;;;;;;26.36;46.04;101393.66;5064766;28;20545;-76
2022/09/06 18:23:56;;;;;;;9.70;3.60;;;;;;;26.21;47.50;101392.50;5047923;28;20684;-75
2022/09/06 18:26:24;;;;;;;8.82;3.08;;;;;;;26.51;46.87;101387.63;5053287;28;20109;-71
2022/09/06 18:28:52;;;;;;;9.43;4.25;;;;;;;26.62;47.62;101382.66;5034678;28;20686;-72
2022/09/06 18:31:19;;;;;;;9.95;4.40;;;;;;;26.58;49.33;101381.09;5041015;28;20555;-71
2022/09/06 18:33:52;;;;;;;7.55;4.30;;;;;;;26.60;49.82;101389.88;5066061;28;20035;-72
2022/09/06 18:36:18;;;;;;;10.73;5.50;;;;;;;26.47;50.61;101388.69;5053334;28;20055;-70
2022/09/06 18:39:07;;;;;;;9.70;5.25;;;;;;;26.44;51.10;101386.16;5055403;28;20072;-70
2022/09/06 18:44:18;;;;;;;11.45;5.43;;;;;;;26.37;52.48;101375.81;5039001;28;20055;-70
2022/09/06 18:46:44;;;;;;;10.80;6.13;;;;;;;26.22;53.16;101380.88;5039655;28;20027;-72
2022/09/06 18:49:13;;;;;;;12.40;6.57;;;;;;;26.05;53.96;101375.34;5031162;28;20529;-72
2022/09/06 18:51:47;;;;;;;12.27;6.65;;;;;;;26.08;54.48;101377.03;5048283;28;20065;-71
2022/09/06 18:54:13;;;;;;;14.07;7.13;;;;;;;25.64;56.80;101369.09;5025980;28;20776;-69
2022/09/06 18:56:48;;;;;;;12.43;7.78;;;;;;;25.57;57.03;101372.06;5042882;28;20024;-72
2022/09/06 18:59:15;;;;;;;12.60;7.40;;;;;;;25.60;56.86;101369.28;5034274;28;20032;-72
2022/09/06 19:01:41;;;;;;;13.98;7.60;;;;;;;25.59;56.77;101357.75;5043274;28;20044;-70
2022/09/06 19:04:08;;;;;;;12.90;7.80;;;;;;;25.70;56.35;101352.81;5042994;28;20538;-70
2022/09/06 19:06:35;;;;;;;12.43;7.97;;;;;;;25.58;56.42;101356.00;5017142;28;20040;-72
2022/09/06 19:09:04;;;;;;;14.63;8.32;;;;;;;25.42;57.20;101358.41;5041021;28;20024;-71
2022/09/06 19:11:33;;;;;;;15.50;8.48;;;;;;;25.39;57.09;101358.50;5036517;28;20028;-71
2022/09/06 19:14:00;;;;;;;16.88;8.20;;;;;;;25.34;57.46;101355.16;5011221;28;20510;-70
2022/09/06 19:16:27;;;;;;;15.88;8.00;;;;;;;25.35;57.05;101351.56;5025410;28;20143;-70
2022/09/06 19:18:55;;;;;;;14.77;7.40;;;;;;;25.37;57.17;101348.84;5047557;28;20025;-73
2022/09/06 19:21:23;;;;;;;15.45;7.90;;;;;;;25.31;57.99;101349.09;5047843;28;20831;-71
2022/09/06 19:23:56;;;;;;;12.02;7.20;;;;;;;25.29;58.00;101349.16;5029551;28;20056;-72
2022/09/06 19:26:25;;;;;;;13.82;7.63;;;;;;;25.16;56.94;101350.56;5044211;28;20043;-73
2022/09/06 19:28:58;;;;;;;15.80;7.60;;;;;;;25.13;57.15;101349.81;5020291;28;20063;-72
2022/09/06 19:31:51;;;;;;;10.90;6.70;;;;;;;25.26;56.55;101351.03;4991448;28;20040;-71
2022/09/06 19:34:27;;;;;;;10.90;6.90;;;;;;;25.32;56.62;101345.47;5028499;28;20513;-73
2022/09/06 19:36:56;;;;;;;12.85;7.07;;;;;;;25.18;56.68;101343.38;5043760;28;20119;-73
2022/09/06 19:39:27;;;;;;;13.10;7.45;;;;;;;25.21;56.95;101342.34;5048428;28;20016;-73
2022/09/06 19:41:52;;;;;;;13.20;7.22;;;;;;;25.17;57.43;101338.97;5029706;28;20543;-72
2022/09/06 19:44:19;;;;;;;13.27;7.47;;;;;;;24.86;57.46;101341.03;5030932;28;20032;-72
2022/09/06 19:46:46;;;;;;;13.73;7.28;;;;;;;25.20;56.26;101336.16;5044471;28;20386;-73
2022/09/06 19:49:12;;;;;;;15.05;7.60;;;;;;;25.16;56.81;101345.22;5049797;28;20024;-73
2022/09/06 19:51:38;;;;;;;11.43;6.72;;;;;;;25.27;56.45;101344.78;5038502;28;20043;-73
2022/09/06 19:54:06;;;;;;;12.48;7.50;;;;;;;25.00;57.26;101347.63;5033243;28;20048;-71
2022/09/06 19:56:33;;;;;;;13.02;6.93;;;;;;;25.04;57.23;101337.69;5054373;28;20066;-71
2022/09/06 19:59:05;;;;;;;10.95;6.32;;;;;;;25.13;57.20;101336.47;5038643;28;20047;-70
2022/09/06 20:01:32;;;;;;;12.07;7.13;;;;;;;25.13;56.78;101339.97;5039800;28;20029;-69
2022/09/06 20:03:58;;;;;;;10.77;6.90;;;;;;;25.19;56.21;101334.41;5016483;28;20379;-70
2022/09/06 20:06:25;;;;;;;11.70;7.10;;;;;;;25.29;56.21;101316.25;5032426;28;20515;-71
2022/09/06 20:08:55;;;;;;;11.60;6.70;;;;;;;25.31;56.49;101293.03;5042988;28;20375;-73
2022/09/06 20:11:22;;;;;;;13.50;7.00;;;;;;;25.19;56.53;101290.88;5039794;28;20458;-71
2022/09/06 20:13:48;;;;;;;12.98;6.65;;;;;;;25.20;56.77;101289.91;5033766;28;20055;-70
2022/09/06 20:16:14;;;;;;;14.00;6.35;;;;;;;24.95;57.09;101298.03;5035870;28;20430;-71
2022/09/06 20:18:40;;;;;;;10.07;5.70;;;;;;;25.08;55.74;101295.75;5041483;28;20770;-70
2022/09/06 20:21:05;;;;;;;9.20;5.80;;;;;;;24.88;56.47;101280.53;5031286;28;20863;-70
2022/09/06 20:23:33;;;;;;;9.80;5.60;;;;;;;25.05;55.37;101272.75;5034709;28;20622;-71
2022/09/06 20:26:01;;;;;;;9.35;5.78;;;;;;;24.97;55.23;101275.72;5020057;28;20405;-70
2022/09/06 20:28:28;;;;;;;9.65;5.68;;;;;;;24.94;55.26;101267.84;5038195;28;20123;-70
2022/09/06 20:30:59;;;;;;;9.75;5.63;;;;;;;24.87;55.44;101258.31;5025839;28;20032;-71
2022/09/06 20:33:24;;;;;;;8.25;5.53;;;;;;;24.86;55.49;101269.03;5033526;28;20115;-70
2022/09/06 20:36:04;;;;;;;9.63;5.32;;;;;;;24.99;55.75;101281.88;5038307;28;20048;-70
2022/09/06 20:38:31;;;;;;;12.15;6.05;;;;;;;25.07;56.19;101276.19;5035840;28;20039;-69
2022/09/06 20:41:05;;;;;;;10.75;6.40;;;;;;;25.01;58.04;101277.31;5025401;28;20039;-72
2022/09/06 20:43:37;;;;;;;10.65;6.60;;;;;;;24.66;60.95;101284.00;5039365;28;20021;-70
2022/09/06 20:46:15;;;;;;;10.40;6.30;;;;;;;24.33;63.49;101287.09;5039195;28;20773;-70
2022/09/06 20:48:41;;;;;;;11.52;6.88;;;;;;;24.15;64.77;101284.09;5013445;28;20044;-70
2022/09/06 20:51:10;;;;;;;14.10;6.80;;;;;;;24.06;65.96;101270.25;5039965;28;20055;-70
2022/09/06 20:53:39;;;;;;;11.00;6.45;;;;;;;24.07;65.84;101254.22;5025688;28;20437;-71
2022/09/06 20:56:07;;;;;;;13.48;6.43;;;;;;;23.85;65.66;101240.81;5035156;28;20316;-71
2022/09/06 20:58:32;;;;;;;13.73;5.55;;;;;;;23.62;64.20;101231.88;5016547;28;20055;-71
2022/09/06 21:00:58;;;;;;;9.75;5.53;;;;;;;23.65;61.72;101243.31;5041887;28;20031;-72
2022/09/06 21:03:25;;;;;;;8.95;5.40;;;;;;;23.72;62.07;101243.97;5027567;28;20094;-72
2022/09/06 21:06:03;;;;;;;9.70;5.50;;;;;;;23.71;63.29;101228.91;5013823;28;20040;-72
2022/09/06 21:08:32;;;;;;;7.45;4.82;;;;;;;23.55;65.37;101233.88;5004360;28;20450;-71
2022/09/06 21:10:59;;;;;;;8.65;4.80;;;;;;;23.54;66.05;101228.66;5039245;28;20054;-69
2022/09/06 21:13:27;;;;;;;9.93;5.10;;;;;;;23.55;66.29;101256.97;5018290;28;20048;-70
2022/09/06 21:15:53;;;;;;;9.63;5.00;;;;;;;23.46;66.56;101311.34;5032504;28;20028;-70
2022/09/06 21:18:30;;;;;;;9.50;5.15;;;;;;;23.38;67.47;101390.56;5045530;28;20525;-72
2022/09/06 21:21:05;;;;;;;10.07;5.00;;;;;;;23.01;68.97;101500.72;5035773;28;20117;-69
2022/09/06 21:23:52;;;;;;;10.90;5.20;;;;;;;23.24;68.87;101547.94;5038225;28;20040;-71
2022/09/06 21:26:17;;;;;;;12.98;5.43;;;;;;;23.20;69.96;101586.19;5022044;28;20452;-70
2022/09/06 21:28:44;;;;;;;11.10;5.82;;;;;;;23.14;70.26;101612.97;5031142;28;20032;-70
2022/09/06 21:31:17;;;;;;;7.47;4.38;;;;;;;23.18;68.82;101616.41;5033911;28;20028;-69
2022/09/06 21:33:53;;;;;;;9.18;4.75;;;;;;;22.54;68.60;101618.91;5038402;28;20027;-69
2022/09/06 21:36:30;;;;;;;6.68;3.33;;;;;;;22.03;68.06;101622.75;5039593;28;20299;-70
2022/09/06 21:39:04;;;;;;;7.47;2.38;;;;;;;21.67;67.16;101604.03;5039378;28;20031;-70
2022/09/06 21:42:25;;;;;;;7.97;2.40;;;;;;;21.39;68.56;101605.50;5038690;28;20424;-71
2022/09/06 21:44:50;;;;;;;4.78;2.30;;;;;;;21.32;70.10;101610.03;5015035;28;20680;-70
2022/09/06 21:47:16;;;;;;;5.50;2.58;;;;;;;21.24;70.23;101622.56;5041844;28;20676;-70
2022/09/06 21:49:42;;;;;;;5.00;2.20;;;;;;;21.24;71.18;101629.63;5050531;28;20020;-70
2022/09/06 21:52:07;;;;;;;3.95;2.30;;;;;;;21.18;71.11;101629.75;5021075;28;20065;-70
2022/09/06 21:54:32;;;;;;;4.55;2.70;;;;;;;21.14;71.10;101609.47;5038307;28;20012;-70
2022/09/06 21:56:58;;;;;;;7.40;2.92;;;;;;;21.20;72.83;101609.41;5040043;28;20915;-70
2022/09/06 21:59:27;;;;;;;3.47;2.58;;;;;;;21.26;73.26;101591.59;5035554;28;20701;-70
2022/09/06 22:01:53;;;;;;;6.35;2.65;;;;;;;21.33;73.06;101579.09;5029295;28;20040;-70
2022/09/06 22:04:18;;;;;;;5.78;3.22;;;;;;;21.27;72.51;101582.75;5038134;28;20031;-70
2022/09/06 22:06:45;;;;;;;6.80;3.20;;;;;;;21.31;73.03;101583.53;5035633;28;20079;-70
2022/09/06 22:09:12;;;;;;;5.88;3.13;;;;;;;21.28;72.90;101575.66;5051056;28;20036;-70
2022/09/06 22:11:51;;;;;;;7.20;3.92;;;;;;;21.35;73.89;101571.94;5046665;28;20070;-70
2022/09/06 22:14:16;;;;;;;7.78;4.07;;;;;;;21.41;73.92;101559.44;5041827;28;20441;-70
2022/09/06 22:16:42;;;;;;;8.20;4.57;;;;;;;21.48;74.18;101557.53;5032066;28;20048;-70
2022/09/06 22:19:08;;;;;;;11.43;4.68;;;;;;;21.53;73.91;101560.97;5045724;28;20657;-69
2022/09/06 22:21:34;;;;;;;8.68;4.75;;;;;;;21.59;74.09;101570.59;5052797;28;20024;-70
2022/09/06 22:24:03;;;;;;;8.25;4.80;;;;;;;21.62;74.13;101571.41;5042374;28;20148;-70
2022/09/06 22:26:30;;;;;;;8.15;4.70;;;;;;;21.69;73.77;101558.88;5034474;28;20170;-68
2022/09/06 22:28:58;;;;;;;8.40;4.47;;;;;;;21.67;73.56;101545.63;5045144;28;20263;-70
2022/09/06 22:31:28;;;;;;;11.40;4.72;;;;;;;21.68;74.04;101539.44;5048604;28;20028;-69
2022/09/06 22:33:56;;;;;;;10.25;4.65;;;;;;;21.76;73.55;101523.34;5024352;28;20028;-69
2022/09/06 22:36:22;;;;;;;10.93;5.13;;;;;;;21.63;73.62;101516.56;5038493;28;20031;-69
2022/09/06 22:38:51;;;;;;;9.77;4.82;;;;;;;21.61;73.76;101516.56;5036407;28;20142;-69
2022/09/06 22:41:17;;;;;;;11.38;5.03;;;;;;;21.54;73.65;101514.09;5037268;28;20051;-70
2022/09/06 22:43:43;;;;;;;9.60;5.20;;;;;;;21.60;74.05;101504.22;5037035;28;20024;-71
2022/09/06 22:46:09;;;;;;;11.77;5.38;;;;;;;21.66;73.85;101497.88;5033922;28;20513;-70
2022/09/06 22:48:35;;;;;;;14.07;5.20;;;;;;;21.66;73.81;101489.94;5053282;28;20501;-71
2022/09/06 22:51:02;;;;;;;13.52;5.72;;;;;;;21.45;74.28;101480.69;5044545;28;20039;-71
2022/09/06 22:53:28;;;;;;;9.15;5.30;;;;;;;21.48;74.58;101479.72;5047866;28;20101;-70
2022/09/06 22:55:54;;;;;;;10.07;4.82;;;;;;;21.51;74.17;101479.69;5013482;28;21592;-69
2022/09/06 22:58:20;;;;;;;9.63;4.88;;;;;;;21.56;74.48;101489.28;5035988;28;20551;-70